Time;durP1;ratioP1;P1;durP2;ratioP2;P2;SDS_P1;SDS_P2;PMS_P1;PMS_P2;Temp;Humidity;BMP_temperature;BMP_pressure;BME280_temperature;BME280_humidity;BME280_pressure;Samples;Min_cycle;Max_cycle;Signal;HPM_P1;HPM_P2
2022/11/21 00:00:23;;;;;;;0.30;0.30;;;5.00;99.90;;;;;;4955200;28;20178;-69
2022/11/21 00:02:49;;;;;;;0.30;0.30;;;5.10;99.90;;;;;;4954113;29;20686;-67
2022/11/21 00:05:15;;;;;;;0.40;0.40;;;5.10;99.90;;;;;;4955589;28;20197;-69
2022/11/21 00:07:40;;;;;;;0.40;0.40;;;5.10;99.90;;;;;;4955341;28;20475;-68
2022/11/21 00:10:06;;;;;;;0.40;0.40;;;5.30;99.90;;;;;;4955306;28;20631;-67
2022/11/21 00:12:32;;;;;;;0.40;0.40;;;5.20;99.90;;;;;;4955289;28;20188;-68
2022/11/21 00:14:58;;;;;;;0.40;0.40;;;5.20;99.90;;;;;;4955397;28;20484;-67
2022/11/21 00:17:23;;;;;;;0.80;0.77;;;5.20;99.90;;;;;;4955072;28;20209;-68
2022/11/21 00:19:49;;;;;;;0.30;0.30;;;5.20;99.90;;;;;;4955130;28;20173;-70
2022/11/21 00:22:14;;;;;;;0.40;0.40;;;5.30;99.90;;;;;;4955311;28;20182;-68
2022/11/21 00:24:40;;;;;;;0.30;0.30;;;5.20;99.90;;;;;;4955432;28;20178;-67
2022/11/21 00:27:06;;;;;;;0.40;0.40;;;5.30;99.90;;;;;;4955208;28;20170;-69
2022/11/21 00:29:31;;;;;;;0.40;0.40;;;5.30;99.90;;;;;;4957219;28;20181;-69
2022/11/21 00:31:57;;;;;;;0.50;0.50;;;5.30;99.90;;;;;;4958647;28;20174;-67
2022/11/21 00:34:22;;;;;;;0.73;0.73;;;5.40;99.90;;;;;;4958909;28;20174;-69
2022/11/21 00:36:48;;;;;;;0.40;0.40;;;5.60;99.90;;;;;;4958968;28;20532;-68
2022/11/21 00:39:14;;;;;;;0.40;0.40;;;5.60;99.90;;;;;;4958666;28;20543;-68
2022/11/21 00:41:39;;;;;;;0.30;0.30;;;5.50;99.90;;;;;;4959014;28;20174;-69
2022/11/21 00:44:05;;;;;;;0.40;0.40;;;5.40;99.90;;;;;;4957446;29;20185;-69
2022/11/21 00:46:31;;;;;;;0.40;0.40;;;5.50;99.90;;;;;;4959081;28;20200;-69
2022/11/21 00:48:56;;;;;;;0.50;0.50;;;5.40;99.90;;;;;;4958484;28;20177;-68
2022/11/21 00:51:22;;;;;;;0.30;0.30;;;5.40;99.90;;;;;;4958694;28;20526;-67
2022/11/21 00:53:47;;;;;;;0.40;0.40;;;5.60;99.90;;;;;;4958697;28;20631;-69
2022/11/21 00:56:13;;;;;;;0.40;0.40;;;5.60;99.90;;;;;;4958510;28;20200;-67
2022/11/21 00:58:39;;;;;;;0.30;0.30;;;5.60;99.90;;;;;;4958182;28;20248;-67
2022/11/21 01:01:14;;;;;;;0.30;0.30;;;5.70;99.90;;;;;;4958483;28;20256;-69
2022/11/21 01:03:40;;;;;;;0.50;0.50;;;5.70;99.90;;;;;;4958477;28;20204;-68
2022/11/21 01:06:12;;;;;;;1.38;1.20;;;5.70;99.90;;;;;;4958291;28;20244;-68
2022/11/21 01:08:39;;;;;;;0.30;0.30;;;5.60;99.90;;;;;;4958315;28;20257;-69
2022/11/21 01:11:08;;;;;;;0.30;0.30;;;5.60;99.90;;;;;;4958329;28;20186;-68
2022/11/21 01:13:34;;;;;;;0.40;0.40;;;5.60;99.90;;;;;;4958238;28;20177;-68
2022/11/21 01:16:08;;;;;;;0.40;0.40;;;5.70;99.90;;;;;;4958018;28;20198;-67
2022/11/21 01:18:35;;;;;;;1.02;1.02;;;5.80;99.90;;;;;;4958021;28;20288;-69
2022/11/21 01:21:03;;;;;;;0.30;0.30;;;5.50;99.90;;;;;;4957383;29;20658;-69
2022/11/21 01:23:28;;;;;;;0.50;0.50;;;5.30;99.90;;;;;;4958248;28;20228;-69
2022/11/21 01:25:54;;;;;;;0.40;0.40;;;5.30;99.90;;;;;;4957982;28;20197;-68
2022/11/21 01:28:19;;;;;;;0.30;0.30;;;5.20;99.90;;;;;;4958020;28;20252;-69
2022/11/21 01:30:45;;;;;;;0.40;0.40;;;5.30;99.90;;;;;;4957850;28;20660;-68
2022/11/21 01:33:11;;;;;;;0.33;0.33;;;5.50;99.90;;;;;;4958017;28;20178;-67
2022/11/21 01:35:36;;;;;;;0.40;0.40;;;5.50;99.90;;;;;;4957772;28;20245;-67
2022/11/21 01:38:02;;;;;;;0.30;0.30;;;5.50;99.90;;;;;;4957722;28;20197;-70
2022/11/21 01:40:27;;;;;;;0.97;0.80;;;5.40;99.90;;;;;;4956549;28;20264;-69
2022/11/21 01:42:57;;;;;;;0.77;0.77;;;5.30;99.90;;;;;;4956498;29;20200;-69
2022/11/21 01:45:56;;;;;;;0.30;0.30;;;5.30;99.90;;;;;;4957636;28;20190;-68
2022/11/21 01:48:33;;;;;;;0.60;0.60;;;5.10;99.90;;;;;;4957592;28;20177;-68
2022/11/21 01:51:22;;;;;;;0.40;0.40;;;5.00;99.90;;;;;;4957787;28;20173;-69
2022/11/21 01:53:57;;;;;;;0.40;0.40;;;4.90;99.90;;;;;;4957025;29;20193;-68
2022/11/21 01:56:24;;;;;;;0.32;0.32;;;5.00;99.90;;;;;;4957419;28;20235;-69
2022/11/21 01:58:52;;;;;;;0.40;0.40;;;5.00;99.90;;;;;;4957401;28;20201;-69
2022/11/21 02:01:18;;;;;;;0.45;0.45;;;5.00;99.90;;;;;;4957422;28;20170;-69
2022/11/21 02:03:45;;;;;;;0.40;0.40;;;5.00;99.90;;;;;;4957365;29;20650;-67
2022/11/21 02:06:12;;;;;;;0.40;0.40;;;5.00;99.90;;;;;;4957331;28;20476;-69
2022/11/21 02:08:39;;;;;;;0.30;0.30;;;5.10;99.90;;;;;;4957189;28;20227;-69
2022/11/21 02:11:13;;;;;;;0.40;0.40;;;5.00;99.90;;;;;;4957273;28;20555;-69
2022/11/21 02:13:39;;;;;;;0.38;0.38;;;5.10;99.90;;;;;;4957300;28;20658;-68
2022/11/21 02:16:06;;;;;;;0.50;0.50;;;5.10;99.90;;;;;;4956920;28;20221;-67
2022/11/21 02:18:31;;;;;;;0.30;0.30;;;5.10;99.90;;;;;;4957080;28;20205;-67
2022/11/21 02:21:12;;;;;;;0.37;0.37;;;5.10;99.90;;;;;;4957081;29;20196;-69
2022/11/21 02:23:46;;;;;;;0.40;0.40;;;5.20;99.90;;;;;;4957189;28;20224;-69
2022/11/21 02:26:12;;;;;;;0.30;0.30;;;5.30;99.90;;;;;;4956916;28;20200;-68
2022/11/21 02:28:38;;;;;;;0.30;0.30;;;5.50;99.90;;;;;;4955493;29;20174;-68
2022/11/21 02:31:04;;;;;;;0.37;0.37;;;5.50;99.90;;;;;;4956861;28;20807;-69
2022/11/21 02:33:29;;;;;;;0.40;0.40;;;5.60;99.90;;;;;;4957003;28;20253;-69
2022/11/21 02:35:57;;;;;;;0.40;0.40;;;5.70;99.90;;;;;;4956640;28;20204;-69
2022/11/21 02:38:30;;;;;;;1.67;1.58;;;5.60;99.90;;;;;;4956656;28;20193;-70
2022/11/21 02:41:01;;;;;;;0.40;0.40;;;5.40;99.90;;;;;;4956816;28;20173;-69
2022/11/21 02:43:46;;;;;;;0.40;0.40;;;5.30;99.90;;;;;;4956597;28;20173;-69
2022/11/21 02:46:12;;;;;;;0.38;0.38;;;5.30;99.90;;;;;;4956627;28;20197;-68
2022/11/21 02:48:38;;;;;;;0.30;0.30;;;5.40;99.90;;;;;;4956460;28;20181;-69
2022/11/21 02:51:03;;;;;;;0.30;0.30;;;5.20;99.90;;;;;;4956611;28;20548;-69
2022/11/21 02:53:29;;;;;;;0.40;0.40;;;5.20;99.90;;;;;;4956288;28;20827;-69
2022/11/21 02:55:55;;;;;;;0.40;0.40;;;5.30;99.90;;;;;;4956304;28;20981;-67
2022/11/21 02:58:20;;;;;;;0.30;0.30;;;5.30;99.90;;;;;;4956342;28;20209;-68
2022/11/21 03:00:46;;;;;;;0.40;0.40;;;5.20;99.90;;;;;;4956249;28;20174;-68
2022/11/21 03:03:12;;;;;;;0.40;0.40;;;5.00;99.90;;;;;;4956411;28;20655;-68
2022/11/21 03:05:39;;;;;;;0.30;0.30;;;5.00;99.90;;;;;;4956098;28;20186;-69
2022/11/21 03:08:05;;;;;;;0.30;0.30;;;5.10;99.90;;;;;;4956183;28;20256;-69
2022/11/21 03:10:31;;;;;;;0.35;0.35;;;5.30;99.90;;;;;;4955984;28;20182;-68
2022/11/21 03:13:00;;;;;;;0.40;0.40;;;5.30;99.90;;;;;;4956458;28;20505;-68
2022/11/21 03:15:31;;;;;;;0.30;0.30;;;5.30;99.90;;;;;;4956188;28;20244;-69
2022/11/21 03:17:57;;;;;;;0.40;0.40;;;5.20;99.90;;;;;;4955885;28;20201;-66
2022/11/21 03:20:23;;;;;;;0.40;0.40;;;5.30;99.90;;;;;;4955739;28;20182;-68
2022/11/21 03:22:49;;;;;;;0.40;0.40;;;5.40;99.90;;;;;;4955910;28;20173;-69
2022/11/21 03:25:16;;;;;;;0.40;0.40;;;5.50;99.90;;;;;;4956041;28;20676;-68
2022/11/21 03:27:42;;;;;;;0.30;0.30;;;5.50;99.90;;;;;;4955804;28;20182;-69
2022/11/21 03:30:08;;;;;;;0.40;0.40;;;5.50;99.90;;;;;;4954333;29;20201;-68
2022/11/21 03:32:33;;;;;;;0.40;0.40;;;5.50;99.90;;;;;;4956029;28;20260;-67
2022/11/21 03:34:59;;;;;;;0.37;0.37;;;5.50;99.90;;;;;;4955828;28;20235;-69
2022/11/21 03:37:25;;;;;;;0.30;0.30;;;5.60;99.90;;;;;;4955660;28;20261;-68
2022/11/21 03:39:50;;;;;;;0.40;0.40;;;5.50;99.90;;;;;;4955687;28;20224;-69
2022/11/21 03:42:16;;;;;;;0.40;0.40;;;5.50;99.90;;;;;;4955716;28;20166;-69
2022/11/21 03:44:41;;;;;;;0.40;0.40;;;5.50;99.90;;;;;;4955687;28;20208;-67
2022/11/21 03:47:07;;;;;;;0.30;0.30;;;5.50;99.90;;;;;;4955635;28;20243;-68
2022/11/21 03:49:32;;;;;;;0.30;0.30;;;5.50;99.90;;;;;;4955497;28;20178;-67
2022/11/21 03:51:58;;;;;;;0.30;0.30;;;5.50;99.90;;;;;;4955594;28;20635;-68
2022/11/21 03:54:24;;;;;;;0.30;0.30;;;5.50;99.90;;;;;;4955601;28;20271;-69
2022/11/21 03:56:49;;;;;;;1.40;0.77;;;5.50;99.90;;;;;;4955421;28;20272;-69
2022/11/21 03:59:15;;;;;;;0.30;0.30;;;5.60;99.90;;;;;;4955268;28;20713;-69
2022/11/21 04:01:41;;;;;;;0.40;0.40;;;5.50;99.90;;;;;;4955599;28;20647;-66
2022/11/21 04:04:06;;;;;;;0.30;0.30;;;5.40;99.90;;;;;;4954788;28;20208;-68
2022/11/21 04:06:32;;;;;;;0.40;0.40;;;5.30;99.90;;;;;;4955364;28;20193;-67
2022/11/21 04:08:58;;;;;;;0.50;0.50;;;5.30;99.90;;;;;;4955243;28;20177;-68
2022/11/21 04:11:23;;;;;;;0.40;0.40;;;5.40;99.90;;;;;;4955557;28;20452;-67
2022/11/21 04:13:50;;;;;;;0.40;0.40;;;5.50;99.90;;;;;;4955580;28;20635;-68
2022/11/21 04:16:16;;;;;;;0.40;0.40;;;5.50;99.90;;;;;;4955086;28;20204;-70
2022/11/21 04:18:42;;;;;;;0.30;0.30;;;5.70;99.90;;;;;;4955697;28;20212;-70
2022/11/21 04:21:09;;;;;;;0.40;0.40;;;5.80;99.90;;;;;;4955283;28;20167;-68
2022/11/21 04:23:35;;;;;;;0.40;0.40;;;5.80;99.90;;;;;;4955070;28;20184;-69
2022/11/21 04:26:01;;;;;;;0.30;0.30;;;5.80;99.90;;;;;;4953929;28;20197;-68
2022/11/21 04:28:27;;;;;;;0.30;0.30;;;5.70;99.90;;;;;;4955335;28;20643;-69
2022/11/21 04:30:52;;;;;;;0.30;0.30;;;5.60;99.90;;;;;;4955156;28;20213;-69
2022/11/21 04:33:18;;;;;;;0.40;0.40;;;5.60;99.90;;;;;;4955325;28;20240;-68
2022/11/21 04:35:45;;;;;;;0.30;0.30;;;5.70;99.90;;;;;;4955082;28;20209;-67
2022/11/21 04:38:12;;;;;;;0.38;0.38;;;5.80;99.90;;;;;;4955082;28;20467;-67
2022/11/21 04:40:38;;;;;;;0.30;0.30;;;5.80;99.90;;;;;;4955014;28;20170;-69
2022/11/21 04:43:03;;;;;;;0.40;0.40;;;5.90;99.90;;;;;;4955175;28;20181;-68
2022/11/21 04:45:30;;;;;;;0.30;0.30;;;6.00;99.90;;;;;;4955030;28;20422;-68
2022/11/21 04:47:56;;;;;;;0.30;0.30;;;5.80;99.90;;;;;;4955173;28;20409;-68
2022/11/21 04:50:22;;;;;;;0.30;0.30;;;5.80;99.90;;;;;;4954886;28;20627;-69
2022/11/21 04:52:53;;;;;;;0.30;0.30;;;5.80;99.90;;;;;;4955554;28;20189;-69
2022/11/21 04:55:20;;;;;;;0.43;0.43;;;5.70;99.90;;;;;;4955015;28;20519;-69
2022/11/21 04:57:45;;;;;;;0.30;0.30;;;5.70;99.90;;;;;;4954998;28;20352;-68
2022/11/21 05:00:13;;;;;;;0.30;0.30;;;5.60;99.90;;;;;;4954797;28;20208;-69
2022/11/21 05:02:38;;;;;;;0.40;0.40;;;5.60;99.90;;;;;;4955035;28;20640;-69
2022/11/21 05:05:05;;;;;;;0.30;0.30;;;5.60;99.90;;;;;;4954953;28;20202;-70
2022/11/21 05:07:30;;;;;;;0.40;0.40;;;5.80;99.90;;;;;;4954860;28;20260;-69
2022/11/21 05:09:56;;;;;;;0.33;0.33;;;5.80;99.90;;;;;;4954745;28;20201;-67
2022/11/21 05:15:06;;;;;;;0.35;0.35;;;5.60;99.90;;;;;;4954961;28;20264;-70
2022/11/21 05:17:31;;;;;;;0.40;0.40;;;5.60;99.90;;;;;;4957947;28;20194;-68
2022/11/21 05:19:57;;;;;;;0.30;0.30;;;5.60;99.90;;;;;;4958137;28;20415;-68
2022/11/21 05:22:24;;;;;;;0.30;0.30;;;5.70;99.90;;;;;;4958139;28;20197;-70
2022/11/21 05:24:49;;;;;;;0.30;0.30;;;5.70;99.90;;;;;;4958206;28;20185;-68
2022/11/21 05:27:15;;;;;;;0.50;0.50;;;5.60;99.90;;;;;;4957960;28;20635;-68
2022/11/21 05:29:41;;;;;;;0.40;0.40;;;5.60;99.90;;;;;;4958095;28;20224;-69
2022/11/21 05:32:06;;;;;;;0.40;0.40;;;5.70;99.90;;;;;;4958060;28;20169;-69
2022/11/21 05:34:32;;;;;;;0.40;0.40;;;5.70;99.90;;;;;;4957939;28;20166;-66
2022/11/21 05:36:57;;;;;;;0.40;0.40;;;5.80;99.90;;;;;;4957788;28;20193;-66
2022/11/21 05:39:24;;;;;;;0.30;0.30;;;5.80;99.90;;;;;;4957643;28;20288;-67
2022/11/21 05:41:50;;;;;;;3.00;1.05;;;5.80;99.90;;;;;;4957790;28;20602;-67
2022/11/21 05:44:16;;;;;;;0.45;0.45;;;5.90;99.90;;;;;;4957833;28;20222;-68
2022/11/21 05:46:42;;;;;;;0.30;0.30;;;5.90;99.90;;;;;;4957588;28;20198;-68
2022/11/21 05:49:07;;;;;;;0.50;0.50;;;5.90;99.90;;;;;;4957790;28;20417;-68
2022/11/21 05:51:33;;;;;;;0.40;0.40;;;5.90;99.90;;;;;;4957786;28;20228;-70
2022/11/21 05:53:59;;;;;;;0.40;0.40;;;5.90;99.90;;;;;;4957674;28;20181;-68
2022/11/21 05:56:25;;;;;;;0.40;0.40;;;5.80;99.90;;;;;;4957413;28;20707;-69
2022/11/21 05:58:53;;;;;;;0.40;0.40;;;5.70;99.90;;;;;;4957203;28;20940;-67
2022/11/21 06:03:25;;;;;;;0.63;0.63;;;5.70;99.90;;;;;;4957454;28;20170;-69
2022/11/21 06:04:05;;;;;;;0.80;0.80;;;5.80;99.90;;;;;;4957172;29;20182;-67
2022/11/21 06:06:31;;;;;;;0.30;0.30;;;5.90;99.90;;;;;;4957322;28;20549;-68
2022/11/21 06:08:57;;;;;;;0.30;0.30;;;5.90;99.90;;;;;;4957314;28;20182;-68
2022/11/21 06:11:22;;;;;;;0.30;0.30;;;5.90;99.90;;;;;;4957541;28;20184;-69
2022/11/21 06:13:48;;;;;;;0.40;0.40;;;5.90;99.90;;;;;;4957601;28;20180;-69
2022/11/21 06:16:17;;;;;;;0.40;0.40;;;5.90;99.90;;;;;;4956998;28;20214;-68
2022/11/21 06:18:45;;;;;;;0.30;0.30;;;6.00;99.90;;;;;;4957127;28;20201;-69
2022/11/21 06:21:13;;;;;;;0.40;0.40;;;6.00;99.90;;;;;;4957227;28;20178;-70
2022/11/21 06:23:39;;;;;;;0.88;0.88;;;5.90;99.90;;;;;;4957176;28;20170;-67
2022/11/21 06:26:07;;;;;;;0.83;0.83;;;5.90;99.90;;;;;;4956560;28;20200;-67
2022/11/21 06:28:37;;;;;;;2.80;0.60;;;6.00;99.90;;;;;;4956881;28;20405;-69
2022/11/21 06:31:08;;;;;;;0.40;0.40;;;6.10;99.90;;;;;;4957082;28;20216;-68
2022/11/21 06:33:35;;;;;;;0.40;0.40;;;6.00;99.90;;;;;;4957059;28;20181;-68
2022/11/21 06:36:05;;;;;;;0.35;0.35;;;5.90;99.90;;;;;;4956724;28;20248;-69
2022/11/21 06:38:31;;;;;;;0.38;0.38;;;5.90;99.90;;;;;;4956789;28;20617;-67
2022/11/21 06:40:57;;;;;;;0.30;0.30;;;5.90;99.90;;;;;;4956925;28;20182;-69
2022/11/21 06:43:23;;;;;;;0.30;0.30;;;5.90;99.90;;;;;;4956853;28;20173;-68
2022/11/21 06:45:48;;;;;;;0.40;0.40;;;6.00;99.90;;;;;;4956625;28;20507;-69
2022/11/21 06:48:14;;;;;;;0.30;0.30;;;6.10;99.90;;;;;;4956608;28;20601;-69
2022/11/21 06:50:40;;;;;;;0.90;0.90;;;6.10;99.90;;;;;;4956329;28;20639;-67
2022/11/21 06:53:06;;;;;;;0.40;0.40;;;6.10;99.90;;;;;;4956945;28;20178;-69
2022/11/21 06:55:31;;;;;;;0.40;0.40;;;6.10;99.90;;;;;;4956367;28;20276;-69
2022/11/21 06:58:00;;;;;;;0.47;0.40;;;6.10;99.90;;;;;;4956368;28;20201;-68
2022/11/21 07:00:29;;;;;;;0.30;0.30;;;6.10;99.90;;;;;;4956281;28;20170;-68
2022/11/21 07:03:00;;;;;;;0.40;0.40;;;6.00;99.90;;;;;;4956335;28;20186;-69
2022/11/21 07:05:25;;;;;;;0.30;0.30;;;5.90;99.90;;;;;;4956329;28;20185;-69
2022/11/21 07:07:51;;;;;;;0.37;0.37;;;5.90;99.90;;;;;;4956229;28;20240;-68
2022/11/21 07:10:16;;;;;;;0.40;0.40;;;5.90;99.90;;;;;;4956029;28;20176;-67
2022/11/21 07:15:26;;;;;;;0.40;0.40;;;6.10;99.90;;;;;;4956216;28;20231;-69
2022/11/21 07:17:51;;;;;;;0.30;0.30;;;6.20;99.90;;;;;;4955841;28;20241;-68
2022/11/21 07:20:17;;;;;;;0.40;0.40;;;6.20;99.90;;;;;;4955841;28;20225;-68
2022/11/21 07:22:43;;;;;;;0.30;0.30;;;6.30;99.90;;;;;;4956171;28;20584;-67
2022/11/21 07:25:08;;;;;;;0.40;0.40;;;6.30;99.90;;;;;;4955961;28;20198;-69
2022/11/21 07:27:34;;;;;;;0.30;0.30;;;6.40;99.90;;;;;;4955842;28;20178;-69
2022/11/21 07:30:00;;;;;;;0.30;0.30;;;6.40;99.90;;;;;;4955653;28;20174;-70
2022/11/21 07:32:26;;;;;;;0.40;0.40;;;6.50;99.90;;;;;;4955960;28;20228;-69
2022/11/21 07:34:52;;;;;;;0.80;0.80;;;6.60;99.90;;;;;;4955721;28;20226;-69
2022/11/21 07:37:19;;;;;;;0.40;0.40;;;6.60;99.90;;;;;;4955743;28;20170;-68
2022/11/21 07:39:45;;;;;;;0.30;0.30;;;6.60;99.90;;;;;;4954877;28;20434;-69
2022/11/21 07:42:11;;;;;;;0.37;0.37;;;6.60;99.90;;;;;;4955882;28;20650;-69
2022/11/21 07:44:37;;;;;;;0.40;0.40;;;6.70;99.90;;;;;;4955544;28;20178;-69
2022/11/21 07:47:04;;;;;;;0.60;0.60;;;6.60;99.90;;;;;;4955575;28;20409;-68
2022/11/21 07:49:30;;;;;;;0.40;0.40;;;6.60;99.90;;;;;;4955408;28;20651;-67
2022/11/21 07:51:57;;;;;;;0.30;0.30;;;6.60;99.90;;;;;;4955580;28;20180;-69
2022/11/21 07:54:22;;;;;;;0.30;0.30;;;6.60;99.90;;;;;;4955585;28;20180;-69
2022/11/21 07:56:48;;;;;;;0.40;0.40;;;6.60;99.90;;;;;;4955454;28;20284;-66
2022/11/21 07:59:13;;;;;;;0.37;0.37;;;6.70;99.90;;;;;;4955368;28;20276;-70
2022/11/21 08:01:39;;;;;;;15.53;2.67;;;6.70;99.90;;;;;;4955645;28;20627;-69
2022/11/21 08:04:05;;;;;;;0.40;0.40;;;6.50;99.90;;;;;;4955661;28;20645;-69
2022/11/21 08:06:30;;;;;;;0.70;0.70;;;6.40;99.90;;;;;;4955530;28;20730;-67
2022/11/21 08:08:56;;;;;;;6.90;1.63;;;6.40;99.90;;;;;;4955540;28;20174;-69
2022/11/21 08:11:22;;;;;;;0.40;0.40;;;6.40;99.90;;;;;;4955544;28;20177;-69
2022/11/21 08:13:47;;;;;;;0.40;0.40;;;6.50;99.90;;;;;;4955565;28;20539;-68
2022/11/21 08:16:13;;;;;;;0.40;0.40;;;6.60;99.90;;;;;;4955276;28;20205;-68
2022/11/21 08:18:38;;;;;;;0.87;0.57;;;6.70;99.90;;;;;;4955055;28;20657;-69
2022/11/21 08:21:04;;;;;;;0.40;0.40;;;6.70;99.90;;;;;;4955323;28;20174;-69
2022/11/21 08:23:31;;;;;;;0.40;0.40;;;6.60;99.90;;;;;;4955322;28;20174;-68
2022/11/21 08:25:56;;;;;;;0.77;0.77;;;6.50;99.60;;;;;;4955248;28;20190;-68
2022/11/21 08:28:22;;;;;;;0.40;0.40;;;6.50;99.90;;;;;;4955229;28;20175;-68
2022/11/21 08:30:48;;;;;;;0.30;0.30;;;6.50;99.90;;;;;;4955193;28;20182;-69
2022/11/21 08:33:14;;;;;;;0.50;0.50;;;6.50;99.90;;;;;;4955187;28;20671;-67
2022/11/21 08:35:41;;;;;;;0.83;0.83;;;6.60;99.90;;;;;;4955087;28;20710;-69
2022/11/21 08:38:07;;;;;;;0.40;0.40;;;6.70;99.90;;;;;;4955392;28;20280;-69
2022/11/21 08:40:34;;;;;;;1.02;0.93;;;6.80;99.90;;;;;;4955012;28;20622;-68
2022/11/21 08:43:05;;;;;;;0.35;0.35;;;6.90;99.60;;;;;;4955247;28;20587;-69
2022/11/21 08:45:32;;;;;;;0.40;0.40;;;6.90;99.90;;;;;;4955038;28;20198;-67
2022/11/21 08:47:59;;;;;;;0.30;0.30;;;6.90;99.90;;;;;;4955072;28;20202;-69
2022/11/21 08:50:26;;;;;;;1.55;1.48;;;6.80;99.90;;;;;;4956781;28;20190;-70
2022/11/21 08:52:57;;;;;;;0.30;0.30;;;6.80;99.90;;;;;;4958857;28;20204;-70
2022/11/21 08:55:23;;;;;;;0.73;0.73;;;6.80;99.90;;;;;;4958762;28;20238;-68
2022/11/21 08:57:48;;;;;;;0.50;0.50;;;6.90;99.90;;;;;;4958376;28;20238;-68
2022/11/21 09:00:15;;;;;;;1.00;0.83;;;6.80;99.90;;;;;;4957121;29;20174;-67
2022/11/21 09:02:41;;;;;;;0.35;0.35;;;6.80;99.90;;;;;;4958547;28;20692;-68
2022/11/21 09:05:07;;;;;;;1.33;1.33;;;6.80;99.90;;;;;;4958487;28;20218;-67
2022/11/21 09:07:33;;;;;;;0.40;0.40;;;6.90;99.90;;;;;;4958344;28;20179;-67
2022/11/21 09:09:58;;;;;;;0.50;0.50;;;6.90;99.90;;;;;;4958186;28;20171;-67
2022/11/21 09:12:24;;;;;;;0.40;0.40;;;6.90;99.90;;;;;;4958439;28;20670;-68
2022/11/21 09:20:18;;;;;;;0.30;0.30;;;6.70;99.90;;;;;;4958029;29;20224;-67
2022/11/21 09:22:43;;;;;;;0.50;0.50;;;6.70;99.90;;;;;;4958218;28;20628;-67
2022/11/21 09:25:09;;;;;;;0.40;0.40;;;6.70;99.90;;;;;;4958012;28;20191;-69
2022/11/21 09:27:34;;;;;;;0.60;0.60;;;6.90;99.90;;;;;;4958096;28;20179;-67
2022/11/21 09:30:00;;;;;;;0.40;0.40;;;6.90;99.90;;;;;;4957888;28;20210;-68
2022/11/21 09:32:26;;;;;;;0.33;0.33;;;6.90;99.90;;;;;;4958032;28;20167;-68
2022/11/21 09:34:51;;;;;;;6.53;1.27;;;6.80;99.90;;;;;;4957918;28;20166;-69
2022/11/21 09:37:17;;;;;;;0.40;0.40;;;6.80;99.90;;;;;;4957719;28;20518;-66
2022/11/21 09:39:42;;;;;;;0.40;0.40;;;6.80;99.90;;;;;;4957584;28;20190;-69
2022/11/21 09:42:40;;;;;;;0.40;0.40;;;6.80;99.90;;;;;;4957752;28;20202;-66
2022/11/21 09:45:09;;;;;;;0.30;0.30;;;6.80;99.90;;;;;;4957919;28;20554;-69
2022/11/21 09:47:39;;;;;;;0.40;0.40;;;6.90;99.90;;;;;;4957688;28;20183;-67
2022/11/21 09:50:15;;;;;;;0.30;0.30;;;7.10;99.90;;;;;;4957515;28;20176;-69
2022/11/21 09:52:55;;;;;;;0.30;0.30;;;7.30;99.90;;;;;;4957648;28;20175;-69
2022/11/21 09:55:41;;;;;;;0.73;0.73;;;7.40;99.90;;;;;;4957721;28;20277;-68
2022/11/21 09:58:19;;;;;;;1.58;1.58;;;7.40;99.90;;;;;;4957390;28;20644;-70
2022/11/21 10:00:44;;;;;;;0.40;0.40;;;7.40;99.90;;;;;;4957071;28;20254;-67
2022/11/21 10:03:12;;;;;;;0.30;0.30;;;7.40;99.90;;;;;;4956842;28;20674;-69
2022/11/21 10:05:46;;;;;;;0.40;0.40;;;7.40;99.90;;;;;;4957471;28;20264;-67
2022/11/21 10:08:34;;;;;;;1.95;1.75;;;7.40;99.90;;;;;;4957267;28;20242;-69
2022/11/21 10:11:28;;;;;;;0.82;0.82;;;7.00;99.90;;;;;;4957362;28;20174;-68
2022/11/21 10:14:11;;;;;;;0.77;0.77;;;6.90;99.90;;;;;;4957252;28;20191;-68
2022/11/21 10:16:48;;;;;;;0.40;0.40;;;7.20;99.90;;;;;;4957076;28;20233;-69
2022/11/21 10:19:28;;;;;;;0.30;0.30;;;7.40;99.90;;;;;;4957001;28;20195;-67
2022/11/21 10:22:09;;;;;;;6.82;2.80;;;7.50;99.90;;;;;;4957113;29;20538;-68
2022/11/21 10:24:49;;;;;;;0.40;0.40;;;7.70;99.90;;;;;;4957369;28;20183;-69
2022/11/21 10:27:36;;;;;;;1.25;1.25;;;7.90;99.90;;;;;;4957045;28;20669;-67
2022/11/21 10:30:05;;;;;;;0.50;0.50;;;8.00;99.10;;;;;;4956733;28;20180;-68
2022/11/21 10:32:39;;;;;;;0.30;0.30;;;8.10;99.00;;;;;;4956715;28;20182;-70
2022/11/21 10:35:21;;;;;;;1.30;1.30;;;8.20;99.00;;;;;;4957028;28;20195;-68
2022/11/21 10:37:56;;;;;;;0.68;0.68;;;8.40;98.90;;;;;;4956694;28;20271;-67
2022/11/21 10:40:40;;;;;;;0.70;0.70;;;8.60;98.60;;;;;;4956651;28;20180;-69
2022/11/21 10:46:04;;;;;;;0.40;0.40;;;9.10;98.10;;;;;;4956861;28;20207;-69
2022/11/21 10:48:29;;;;;;;2.43;2.23;;;9.60;97.80;;;;;;4956939;28;20624;-69
2022/11/21 10:51:24;;;;;;;0.40;0.40;;;10.10;96.20;;;;;;4956432;28;20169;-68
2022/11/21 10:56:47;;;;;;;0.40;0.40;;;10.50;94.80;;;;;;4956828;28;20207;-68
2022/11/21 10:59:24;;;;;;;0.30;0.30;;;10.90;94.40;;;;;;4956347;28;20560;-69
2022/11/21 11:02:01;;;;;;;0.40;0.40;;;11.10;93.30;;;;;;4956327;28;20649;-69
2022/11/21 11:04:29;;;;;;;0.40;0.40;;;11.10;93.20;;;;;;4956458;28;20205;-67
2022/11/21 11:06:58;;;;;;;2.05;0.40;;;11.20;93.70;;;;;;4956108;28;20609;-68
2022/11/21 11:09:34;;;;;;;0.95;0.95;;;11.30;93.50;;;;;;4955933;28;20177;-67
2022/11/21 11:15:20;;;;;;;0.30;0.30;;;11.00;92.60;;;;;;4956242;28;20783;-67
2022/11/21 11:17:58;;;;;;;0.50;0.50;;;10.70;93.40;;;;;;4955890;28;20189;-69
2022/11/21 11:20:42;;;;;;;9.75;0.98;;;10.70;93.80;;;;;;4955986;28;20412;-68
2022/11/21 11:23:19;;;;;;;0.30;0.30;;;10.80;93.30;;;;;;4956098;28;20169;-69
2022/11/21 11:25:51;;;;;;;0.30;0.30;;;10.80;93.30;;;;;;4955864;28;20432;-67
2022/11/21 11:28:18;;;;;;;0.60;0.50;;;10.80;93.20;;;;;;4956119;28;20428;-69
2022/11/21 11:30:45;;;;;;;0.30;0.30;;;10.70;93.50;;;;;;4955816;28;20182;-69
2022/11/21 11:33:31;;;;;;;3.70;1.63;;;10.80;93.80;;;;;;4956103;28;20480;-67
2022/11/21 11:36:13;;;;;;;0.30;0.30;;;10.60;93.50;;;;;;4955690;28;20425;-67
2022/11/21 11:38:51;;;;;;;0.40;0.40;;;10.50;94.00;;;;;;4955677;28;20467;-69
2022/11/21 11:47:38;;;;;;;0.30;0.30;;;11.00;92.90;;;;;;4955811;29;20160;-68
2022/11/21 11:50:16;;;;;;;0.30;0.30;;;11.10;92.80;;;;;;4955711;28;20249;-70
2022/11/21 11:53:16;;;;;;;0.40;0.40;;;11.20;92.90;;;;;;4956014;28;20170;-67
2022/11/21 11:55:58;;;;;;;0.30;0.30;;;11.50;92.90;;;;;;4955485;28;20941;-69
2022/11/21 11:58:54;;;;;;;0.30;0.30;;;11.70;92.20;;;;;;4955580;28;20201;-68
2022/11/21 12:01:29;;;;;;;0.30;0.30;;;11.70;91.30;;;;;;4955508;28;20639;-67
2022/11/21 12:04:18;;;;;;;0.30;0.30;;;11.60;90.90;;;;;;4955395;28;20184;-68
2022/11/21 12:07:11;;;;;;;0.57;0.57;;;11.40;91.30;;;;;;4955461;28;20807;-69
2022/11/21 12:09:42;;;;;;;0.30;0.30;;;11.10;92.20;;;;;;4955308;28;20416;-68
2022/11/21 12:12:27;;;;;;;0.60;0.60;;;10.70;94.10;;;;;;4955422;28;20517;-70
2022/11/21 12:18:12;;;;;;;0.30;0.30;;;10.40;95.00;;;;;;4955136;29;20216;-68
2022/11/21 12:20:55;;;;;;;0.40;0.40;;;9.90;95.90;;;;;;4955202;28;20166;-69
2022/11/21 12:23:31;;;;;;;0.30;0.30;;;9.80;96.60;;;;;;4955398;28;20174;-68
2022/11/21 12:25:57;;;;;;;0.50;0.50;;;9.60;97.40;;;;;;4958329;28;20192;-70
2022/11/21 12:28:39;;;;;;;0.30;0.30;;;9.40;98.00;;;;;;4959129;28;20176;-70
2022/11/21 12:31:17;;;;;;;0.30;0.30;;;9.20;98.40;;;;;;4959150;28;20174;-70
2022/11/21 12:34:03;;;;;;;0.30;0.30;;;9.00;99.10;;;;;;4959413;28;20697;-69
2022/11/21 12:36:58;;;;;;;0.30;0.30;;;9.00;99.80;;;;;;4958924;28;20249;-68
2022/11/21 12:39:27;;;;;;;0.30;0.30;;;9.00;99.90;;;;;;4932528;28;20229;-68
2022/11/21 12:45:16;;;;;;;0.30;0.30;;;9.00;99.90;;;;;;4958840;28;20685;-67
2022/11/21 12:57:04;;;;;;;0.40;0.40;;;9.30;99.60;;;;;;4958596;28;20200;-68
2022/11/21 12:59:37;;;;;;;0.30;0.30;;;9.30;99.70;;;;;;4958437;28;20336;-68
2022/11/21 13:02:24;;;;;;;0.30;0.30;;;9.30;99.70;;;;;;4958568;28;20169;-67
2022/11/21 13:04:53;;;;;;;0.70;0.70;;;9.20;99.90;;;;;;4957285;28;20643;-69
2022/11/21 13:07:20;;;;;;;0.30;0.30;;;9.20;99.90;;;;;;4958511;28;20208;-67
2022/11/21 13:09:49;;;;;;;0.30;0.30;;;9.20;99.90;;;;;;4958243;28;20185;-69
2022/11/21 13:12:24;;;;;;;0.50;0.50;;;9.20;99.90;;;;;;4958439;28;20264;-67
2022/11/21 13:14:56;;;;;;;1.25;1.25;;;9.00;99.90;;;;;;4958493;28;20235;-69
2022/11/21 13:17:24;;;;;;;0.47;0.47;;;9.10;99.90;;;;;;4958272;28;20594;-70
2022/11/21 13:20:00;;;;;;;0.30;0.30;;;9.20;99.90;;;;;;4958014;28;20208;-67
2022/11/21 13:22:35;;;;;;;0.60;0.60;;;9.30;99.90;;;;;;4958391;28;20201;-68
2022/11/21 13:25:10;;;;;;;0.30;0.30;;;9.40;99.90;;;;;;4958242;28;20267;-68
2022/11/21 13:27:40;;;;;;;0.38;0.38;;;9.40;99.90;;;;;;4958098;28;20157;-67
2022/11/21 13:30:06;;;;;;;0.30;0.30;;;9.30;99.90;;;;;;4958078;28;20194;-67
2022/11/21 13:32:42;;;;;;;0.50;0.50;;;9.40;99.90;;;;;;4958249;28;20662;-69
2022/11/21 13:35:20;;;;;;;1.30;1.20;;;9.30;99.90;;;;;;4958025;28;20332;-69
2022/11/21 13:37:48;;;;;;;0.40;0.40;;;9.30;99.60;;;;;;4957092;28;20177;-69
2022/11/21 13:40:26;;;;;;;0.30;0.30;;;9.10;98.00;;;;;;4957868;28;20256;-69
2022/11/21 13:43:18;;;;;;;0.30;0.30;;;9.10;98.60;;;;;;4957976;28;20166;-69
2022/11/21 13:45:48;;;;;;;0.68;0.45;;;9.10;98.70;;;;;;4956387;28;20204;-69
2022/11/21 13:48:29;;;;;;;0.88;0.88;;;9.20;98.80;;;;;;4957716;28;20185;-69